Thunder radar more information blitzortung!


Radar de pluja more information rain snow radar


Visita la nostra xarxa de llocs de meteo:

Template documentation
and downloads

And another site



No particular awareness of the weather is required.    There are no Weather-warnings

Pagina Historial Weather Underground text

Diari Resum Marc 23, 2016 Unitats:  Mètric    Imperial   Tant
« Previous Dia
SegĂźent Dia »
Diari Setmana Mensual Anual Personalitzada
  Maxima: Minima: Media:
Temperatura: 20.1 °C 6.0 °C 12.1 °C
Punt de rosada: 5.5 °C -3.2 °C -0.2 °C
Humitat: 59 % 30 % 44 %
Wind Speed: 11.3 km/h 0.0 km/h 3.4 km/h
RĂ fegues de vent: 17.7 km/h - -
Vent:- - SSE
Pression baro: 1009.0 hPa 1000.9 hPa -
Precipitacions: 0.0 mm    
Historical Graphs
 
 
Dades de taula per Marc 23, 2016
Temps Temperatura Punt de rosada Pression baro Vent Wind Speed RĂ fegues de vent Humitat Rainfall Rate (Hourly)
00:05 6.2 °C -1.7 °C 1002.9 hPa West 1.6 km/h 4.8 km/h 57 % 0.0 mm
00:15 6.2 °C -1.7 °C 1002.9 hPa WNW 3.2 km/h 6.4 km/h 57 % 0.0 mm
00:25 6.2 °C -1.7 °C 1002.9 hPa West 1.6 km/h 4.8 km/h 57 % 0.0 mm
00:35 6.1 °C -1.8 °C 1002.9 hPa West 1.6 km/h 6.4 km/h 57 % 0.0 mm
00:45 6.1 °C -1.8 °C 1002.9 hPa WSW 4.8 km/h 4.8 km/h 57 % 0.0 mm
00:55 6.0 °C -1.9 °C 1002.9 hPa WSW 3.2 km/h 8.0 km/h 57 % 0.0 mm
01:05 6.0 °C -1.9 °C 1002.9 hPa WNW 3.2 km/h 4.8 km/h 57 % 0.0 mm
01:15 6.0 °C -1.9 °C 1002.9 hPa WNW 3.2 km/h 6.4 km/h 57 % 0.0 mm
01:25 6.0 °C -1.7 °C 1003.9 hPa West 1.6 km/h 4.8 km/h 58 % 0.0 mm
01:35 6.1 °C -1.6 °C 1003.9 hPa NNE 3.2 km/h 4.8 km/h 58 % 0.0 mm
01:45 6.2 °C -1.4 °C 1003.9 hPa ENE 1.6 km/h 4.8 km/h 58 % 0.0 mm
01:55 6.3 °C -1.4 °C 1003.9 hPa NNE 3.2 km/h 6.4 km/h 58 % 0.0 mm
02:05 6.3 °C -1.4 °C 1003.9 hPa NE 3.2 km/h 6.4 km/h 58 % 0.0 mm
02:15 6.4 °C -1.1 °C 1003.9 hPa NE 1.6 km/h 4.8 km/h 59 % 0.0 mm
02:25 6.5 °C -0.9 °C 1003.9 hPa NE 4.8 km/h 4.8 km/h 59 % 0.0 mm
02:35 6.6 °C -0.8 °C 1003.9 hPa NE 1.6 km/h 3.2 km/h 59 % 0.0 mm
02:45 6.7 °C -1.0 °C 1003.9 hPa NE 3.2 km/h 6.4 km/h 58 % 0.0 mm
03:15 6.7 °C -1.0 °C 1003.9 hPa NNE 3.2 km/h 4.8 km/h 58 % 0.0 mm
03:35 8.0 °C -0.3 °C 1003.9 hPa NNE 4.8 km/h 9.7 km/h 56 % 0.0 mm
03:45 8.3 °C 0.3 °C 1003.9 hPa NNE 3.2 km/h 6.4 km/h 57 % 0.0 mm
04:15 9.7 °C 1.3 °C 1002.9 hPa NE 4.8 km/h 6.4 km/h 56 % 0.0 mm
04:35 10.5 °C 1.8 °C 1003.9 hPa NE 4.8 km/h 6.4 km/h 55 % 0.0 mm
04:55 11.5 °C 2.5 °C 1003.9 hPa NE 8.0 km/h 9.7 km/h 54 % 0.0 mm
05:15 12.8 °C 3.4 °C 1003.9 hPa NE 4.8 km/h 4.8 km/h 53 % 0.0 mm
05:25 13.1 °C 3.7 °C 1003.9 hPa NE 4.8 km/h 6.4 km/h 53 % 0.0 mm
05:35 13.6 °C 3.9 °C 1003.9 hPa NE 3.2 km/h 6.4 km/h 52 % 0.0 mm
05:45 14.3 °C 4.6 °C 1003.9 hPa NE 4.8 km/h 8.0 km/h 52 % 0.0 mm
05:55 14.3 °C 4.6 °C 1003.9 hPa ENE 4.8 km/h 6.4 km/h 52 % 0.0 mm
06:05 14.6 °C 4.8 °C 1003.9 hPa NE 4.8 km/h 6.4 km/h 52 % 0.0 mm
06:15 14.7 °C 4.9 °C 1002.9 hPa NE 1.6 km/h 6.4 km/h 52 % 0.0 mm
06:25 15.9 °C 5.5 °C 1003.9 hPa NE 4.8 km/h 8.0 km/h 50 % 0.0 mm
06:35 15.9 °C 5.5 °C 1003.9 hPa NE 1.6 km/h 4.8 km/h 50 % 0.0 mm
06:45 16.9 °C 5.5 °C 1002.9 hPa West 4.8 km/h 9.7 km/h 47 % 0.0 mm
06:55 17.2 °C 4.8 °C 1002.9 hPa WSW 4.8 km/h 9.7 km/h 44 % 0.0 mm
07:05 17.2 °C 4.5 °C 1002.9 hPa WSW 9.7 km/h 9.7 km/h 43 % 0.0 mm
07:15 16.7 °C 3.4 °C 1002.9 hPa SW 9.7 km/h 14.5 km/h 41 % 0.0 mm
07:25 16.8 °C 3.8 °C 1002.9 hPa WSW 4.8 km/h 9.7 km/h 42 % 0.0 mm
07:35 17.9 °C 4.8 °C 1002.9 hPa West 4.8 km/h 8.0 km/h 42 % 0.0 mm
07:45 17.4 °C 3.3 °C 1002.9 hPa WSW 9.7 km/h 14.5 km/h 39 % 0.0 mm
07:55 17.8 °C 4.0 °C 1002.9 hPa West 8.0 km/h 14.5 km/h 40 % 0.0 mm
08:15 18.2 °C 2.9 °C 1002.9 hPa West 8.0 km/h 9.7 km/h 36 % 0.0 mm
08:25 18.3 °C 2.6 °C 1001.9 hPa WSW 8.0 km/h 9.7 km/h 35 % 0.0 mm
08:35 18.5 °C 2.3 °C 1001.9 hPa West 8.0 km/h 16.1 km/h 34 % 0.0 mm
08:45 18.5 °C 2.3 °C 1001.9 hPa WNW 4.8 km/h 17.7 km/h 34 % 0.0 mm
08:55 18.9 °C 2.7 °C 1001.9 hPa West 8.0 km/h 9.7 km/h 34 % 0.0 mm
09:05 18.7 °C 2.5 °C 1001.9 hPa WSW 8.0 km/h 9.7 km/h 34 % 0.0 mm
09:15 19.0 °C 2.3 °C 1001.9 hPa WSW 8.0 km/h 9.7 km/h 33 % 0.0 mm
09:25 19.4 °C 3.1 °C 1001.9 hPa West 4.8 km/h 8.0 km/h 34 % 0.0 mm
09:35 19.4 °C 2.7 °C 1001.9 hPa West 9.7 km/h 9.7 km/h 33 % 0.0 mm
09:45 19.5 °C 2.8 °C 1001.9 hPa WSW 4.8 km/h 9.7 km/h 33 % 0.0 mm
09:55 19.6 °C 2.4 °C 1000.9 hPa WSW 9.7 km/h 12.9 km/h 32 % 0.0 mm
10:05 19.6 °C 2.4 °C 1000.9 hPa West 4.8 km/h 14.5 km/h 32 % 0.0 mm
10:25 19.9 °C 2.7 °C 1001.9 hPa WSW 3.2 km/h 9.7 km/h 32 % 0.0 mm
10:45 20.1 °C 2.4 °C 1001.9 hPa WSW 4.8 km/h 8.0 km/h 31 % 0.0 mm
10:55 19.9 °C 2.3 °C 1001.9 hPa SW 4.8 km/h 9.7 km/h 31 % 0.0 mm
11:05 19.9 °C 2.3 °C 1001.9 hPa SW 4.8 km/h 9.7 km/h 31 % 0.0 mm
11:15 19.9 °C 2.3 °C 1001.9 hPa WSW 4.8 km/h 6.4 km/h 31 % 0.0 mm
11:25 19.8 °C 2.2 °C 1000.9 hPa WSW 8.0 km/h 9.7 km/h 31 % 0.0 mm
11:35 19.9 °C 2.3 °C 1000.9 hPa WSW 4.8 km/h 6.4 km/h 31 % 0.0 mm
11:45 19.6 °C 2.0 °C 1001.9 hPa WSW 4.8 km/h 4.8 km/h 31 % 0.0 mm
11:55 19.5 °C 1.4 °C 1001.9 hPa WSW 4.8 km/h 4.8 km/h 30 % 0.0 mm
12:05 19.3 °C 1.7 °C 1001.9 hPa West 1.6 km/h 6.4 km/h 31 % 0.0 mm
12:15 18.7 °C 1.2 °C 1002.9 hPa West 4.8 km/h 11.3 km/h 31 % 0.0 mm
12:25 18.4 °C 0.9 °C 1002.9 hPa West 3.2 km/h 4.8 km/h 31 % 0.0 mm
12:35 18.1 °C 0.7 °C 1002.9 hPa West 1.6 km/h 6.4 km/h 31 % 0.0 mm
12:45 17.7 °C 0.8 °C 1003.9 hPa West 4.8 km/h 4.8 km/h 32 % 0.0 mm
12:55 16.0 °C 1.7 °C 1005.0 hPa ENE 11.3 km/h 11.3 km/h 38 % 0.0 mm
13:05 15.2 °C 2.0 °C 1005.0 hPa ENE 11.3 km/h 17.7 km/h 41 % 0.0 mm
13:15 14.4 °C 1.6 °C 1003.9 hPa ENE 9.7 km/h 9.7 km/h 42 % 0.0 mm
13:25 13.9 °C 1.5 °C 1005.0 hPa NE 9.7 km/h 16.1 km/h 43 % 0.0 mm
13:55 13.1 °C 0.1 °C 1006.0 hPa NE 9.7 km/h 9.7 km/h 41 % 0.0 mm
14:05 13.0 °C -0.3 °C 1006.0 hPa NE 4.8 km/h 9.7 km/h 40 % 0.0 mm
14:15 12.9 °C -0.7 °C 1006.0 hPa NE 8.0 km/h 11.3 km/h 39 % 0.0 mm
14:35 12.7 °C -0.9 °C 1005.0 hPa NE 4.8 km/h 8.0 km/h 39 % 0.0 mm
14:45 12.6 °C -1.0 °C 1006.0 hPa NE 8.0 km/h 8.0 km/h 39 % 0.0 mm
14:55 12.6 °C -1.0 °C 1006.0 hPa NE 8.0 km/h 8.0 km/h 39 % 0.0 mm
15:05 12.4 °C -1.2 °C 1006.0 hPa NE 4.8 km/h 9.7 km/h 39 % 0.0 mm
18:20 8.8 °C -2.8 °C 1008.0 hPa SW 3.2 km/h 4.8 km/h 44 % 0.0 mm
18:30 8.7 °C -2.9 °C 1008.0 hPa SW 1.6 km/h 4.8 km/h 44 % 0.0 mm
18:40 8.6 °C -2.7 °C 1008.0 hPa Calm   3.2 km/h 45 % 0.0 mm
18:50 8.5 °C -2.5 °C 1008.0 hPa Calm   1.6 km/h 46 % 0.0 mm
19:00 7.8 °C -2.8 °C 1008.0 hPa WNW 3.2 km/h 6.4 km/h 47 % 0.0 mm
19:10 7.8 °C -2.8 °C 1008.0 hPa Calm   1.6 km/h 47 % 0.0 mm
19:20 7.6 °C -2.7 °C 1008.0 hPa Calm   1.6 km/h 48 % 0.0 mm
19:30 7.4 °C -2.6 °C 1009.0 hPa WNW 1.6 km/h 3.2 km/h 49 % 0.0 mm
19:40 7.3 °C -2.7 °C 1008.0 hPa Calm   1.6 km/h 49 % 0.0 mm
19:50 7.2 °C -2.6 °C 1008.0 hPa Calm     50 % 0.0 mm
20:00 7.0 °C -2.7 °C 1009.0 hPa Calm     50 % 0.0 mm
20:10 6.9 °C -2.8 °C 1009.0 hPa NE 1.6 km/h 1.6 km/h 50 % 0.0 mm
20:20 6.9 °C -2.6 °C 1009.0 hPa Calm   3.2 km/h 51 % 0.0 mm
20:30 6.7 °C -2.7 °C 1009.0 hPa Calm   3.2 km/h 51 % 0.0 mm
20:40 6.7 °C -2.7 °C 1009.0 hPa Calm   1.6 km/h 51 % 0.0 mm
20:50 6.8 °C -2.7 °C 1009.0 hPa North 1.6 km/h 3.2 km/h 51 % 0.0 mm
21:00 6.8 °C -2.7 °C 1009.0 hPa NE 1.6 km/h 1.6 km/h 51 % 0.0 mm
21:05 12.4 °C -1.2 °C 1006.0 hPa NE 5.8 km/h 6.4 km/h 39 % 0.0 mm
21:10 12.3 °C -1.3 °C 1006.0 hPa ENE 5.6 km/h 5.6 km/h 39 % 0.0 mm
21:15 12.3 °C -1.3 °C 1006.0 hPa NE 4.2 km/h 4.2 km/h 39 % 0.0 mm
21:20 12.1 °C -1.4 °C 1006.0 hPa NE 1.9 km/h 3.2 km/h 39 % 0.0 mm
21:25 11.9 °C -1.6 °C 1007.0 hPa NE 1.9 km/h 3.2 km/h 39 % 0.0 mm
21:30 11.7 °C -1.8 °C 1007.0 hPa NE 1.9 km/h 3.2 km/h 39 % 0.0 mm
21:35 11.6 °C -1.6 °C 1007.0 hPa NE 1.9 km/h 3.2 km/h 40 % 0.0 mm
21:40 11.6 °C -1.6 °C 1007.0 hPa NE 1.9 km/h 3.2 km/h 40 % 0.0 mm
21:45 11.6 °C -1.6 °C 1007.0 hPa NE 1.9 km/h 3.2 km/h 40 % 0.0 mm
21:50 11.4 °C -1.7 °C 1007.0 hPa NNE 2.3 km/h 2.6 km/h 40 % 0.0 mm
21:55 11.3 °C -1.8 °C 1007.0 hPa NNE 2.3 km/h 2.6 km/h 40 % 0.0 mm
22:00 11.3 °C -1.8 °C 1007.0 hPa NNE 2.3 km/h 2.6 km/h 40 % 0.0 mm
22:05 11.1 °C -2.0 °C 1007.0 hPa NNE 2.3 km/h 2.6 km/h 40 % 0.0 mm
22:10 11.1 °C -2.0 °C 1007.0 hPa NNE 2.3 km/h 2.6 km/h 40 % 0.0 mm
22:15 11.0 °C -2.1 °C 1007.0 hPa NE 1.9 km/h   40 % 0.0 mm
22:20 11.1 °C -2.0 °C 1007.0 hPa Calm     40 % 0.0 mm
22:25 11.0 °C -2.1 °C 1007.0 hPa Calm     40 % 0.0 mm
22:30 10.9 °C -2.2 °C 1007.0 hPa Calm     40 % 0.0 mm
22:35 10.9 °C -2.2 °C 1007.0 hPa Calm     40 % 0.0 mm
22:40 10.9 °C -2.2 °C 1007.0 hPa Calm     40 % 0.0 mm
22:45 11.0 °C -2.1 °C 1007.0 hPa Calm     40 % 0.0 mm
22:50 10.9 °C -1.8 °C 1007.0 hPa Calm     41 % 0.0 mm
22:55 10.9 °C -1.8 °C 1008.0 hPa Calm     41 % 0.0 mm
23:00 10.7 °C -2.1 °C 1008.0 hPa Calm     41 % 0.0 mm
23:05 10.7 °C -2.1 °C 1008.0 hPa Calm     41 % 0.0 mm
23:10 10.6 °C -2.1 °C 1008.0 hPa Calm     41 % 0.0 mm
23:15 10.4 °C -2.3 °C 1008.0 hPa Calm     41 % 0.0 mm
23:20 10.4 °C -2.3 °C 1008.0 hPa Calm     41 % 0.0 mm
23:25 10.4 °C -2.3 °C 1008.0 hPa Calm     41 % 0.0 mm
23:30 10.3 °C -2.4 °C 1008.0 hPa NNW 1.9 km/h 2.6 km/h 41 % 0.0 mm
23:35 10.4 °C -2.3 °C 1008.0 hPa NE 3.7 km/h 3.7 km/h 41 % 0.0 mm
23:40 10.4 °C -2.3 °C 1008.0 hPa Calm     41 % 0.0 mm
23:43 10.3 °C -2.4 °C 1008.0 hPa Calm     41 % 0.0 mm
23:48 9.3 °C -3.0 °C 1008.0 hPa Calm     42 % 0.0 mm
23:49 9.2 °C -3.1 °C 1008.0 hPa Calm     42 % 0.0 mm
23:50 9.2 °C -3.1 °C 1008.0 hPa Calm     42 % 0.0 mm
23:51 9.1 °C -3.2 °C 1008.0 hPa Calm     42 % 0.0 mm
23:53 9.0 °C -3.2 °C 1008.0 hPa Calm     42 % 0.0 mm
23:54 9.0 °C -3.2 °C 1008.0 hPa Calm     42 % 0.0 mm
23:55 9.0 °C -3.2 °C 1008.0 hPa Calm     42 % 0.0 mm
23:57 9.0 °C -3.2 °C 1008.0 hPa Calm     42 % 0.0 mm
23:58 9.0 °C -3.2 °C 1008.0 hPa Calm     42 % 0.0 mm
23:59 9.1 °C -3.2 °C 1008.0 hPa Calm     42 % 0.0 mm
Meteo Sesrovires
Elogis d' Weather Underground - 3.25 mb

Guio original per  Jim McMurry - jmcmurry@mwt.net Adaptat per a la plantilla per  Wim van der Kuil - Leuven-Template.eu

Trobareu la nostra informacio del temps tambe a:

Weather Underground

AWEKAS